Time;durP1;ratioP1;P1;durP2;ratioP2;P2;SDS_P1;SDS_P2;PMS_P1;PMS_P2;Temp;Humidity;BMP_temperature;BMP_pressure;BME280_temperature;BME280_humidity;BME280_pressure;Samples;Min_cycle;Max_cycle;Signal;HPM_P1;HPM_P2
2022/09/13 08:06:55;;;;;;;8.70;3.80;;;;;;;11.76;100.00;97618.50;1870852;75;22043;-59
2022/09/13 08:09:22;;;;;;;3.37;2.90;;;;;;;11.73;100.00;97621.78;1837141;77;20934;-56
2022/09/13 08:11:51;;;;;;;3.33;2.40;;;;;;;11.71;100.00;97617.28;1834459;77;21110;-57
2022/09/13 08:14:19;;;;;;;2.25;2.05;;;;;;;11.73;100.00;97625.81;1838938;77;20990;-60
2022/09/13 08:16:50;;;;;;;2.30;1.90;;;;;;;11.76;100.00;97617.16;1837914;77;20935;-57
2022/09/13 08:19:22;;;;;;;2.37;1.98;;;;;;;11.83;100.00;97617.52;1803454;78;21358;-58
2022/09/13 08:21:49;;;;;;;2.83;2.00;;;;;;;11.84;100.00;97624.48;1791140;78;21428;-59
2022/09/13 08:24:18;;;;;;;3.77;2.40;;;;;;;11.88;100.00;97621.96;1800198;78;22152;-58
2022/09/13 08:26:45;;;;;;;2.75;1.90;;;;;;;11.97;100.00;97630.30;1800467;78;21640;-59
2022/09/13 08:29:12;;;;;;;3.33;2.20;;;;;;;12.00;100.00;97625.67;1773218;78;21025;-58
2022/09/13 08:31:39;;;;;;;2.65;2.00;;;;;;;12.02;100.00;97626.16;1805424;78;21215;-57
2022/09/13 08:34:11;;;;;;;2.72;2.20;;;;;;;12.05;100.00;97622.06;1773913;78;21031;-59
2022/09/13 08:36:40;;;;;;;2.37;2.15;;;;;;;12.16;100.00;97618.80;1770827;79;21062;-58
2022/09/13 08:39:07;;;;;;;1.60;1.50;;;;;;;12.30;100.00;97626.21;1762181;80;21061;-59
2022/09/13 08:41:58;;;;;;;3.75;2.00;;;;;;;12.42;100.00;97628.85;1802793;79;21512;-59
2022/09/13 08:44:35;;;;;;;2.47;1.87;;;;;;;12.50;100.00;97624.08;1799838;78;21045;-58
2022/09/13 08:47:33;;;;;;;2.60;1.70;;;;;;;12.51;100.00;97613.55;1737151;80;21117;-59
2022/09/13 08:50:12;;;;;;;1.92;1.70;;;;;;;12.60;100.00;97617.09;1798113;78;21308;-60
2022/09/13 08:52:54;;;;;;;2.22;1.87;;;;;;;12.69;100.00;97609.84;1798873;78;21005;-61
2022/09/13 08:55:35;;;;;;;1.87;1.67;;;;;;;12.81;100.00;97612.71;1765795;80;21021;-60
2022/09/13 08:58:20;;;;;;;2.30;2.10;;;;;;;12.95;100.00;97617.41;1757942;79;21512;-63
2022/09/13 09:00:51;;;;;;;3.50;2.05;;;;;;;13.04;100.00;97610.14;1766183;79;21058;-59
2022/09/13 09:03:55;;;;;;;2.30;2.05;;;;;;;13.10;98.43;97612.92;1766868;78;21890;-61
2022/09/13 09:06:22;;;;;;;3.40;1.80;;;;;;;13.12;97.02;97604.56;1772596;79;21106;-62
2022/09/13 09:09:14;;;;;;;2.52;1.95;;;;;;;13.15;96.52;97599.33;1750732;80;21042;-63
2022/09/13 09:11:45;;;;;;;2.15;1.90;;;;;;;13.19;95.74;97600.85;1757390;80;21106;-60
2022/09/13 09:14:32;;;;;;;2.25;1.82;;;;;;;13.20;94.97;97605.91;1750183;79;21887;-61
2022/09/13 09:17:25;;;;;;;2.12;1.80;;;;;;;13.24;94.43;97605.50;1751652;80;21212;-61
2022/09/13 09:20:08;;;;;;;2.40;1.72;;;;;;;13.31;94.09;97604.47;1775980;79;21106;-62
2022/09/13 09:22:35;;;;;;;2.12;1.70;;;;;;;13.39;94.16;97602.89;1773652;79;20968;-63
2022/09/13 09:25:02;;;;;;;2.10;1.80;;;;;;;13.48;93.10;97608.51;1778139;79;21121;-62
2022/09/13 09:27:30;;;;;;;2.62;1.82;;;;;;;13.54;93.00;97614.53;1779452;79;21131;-62
2022/09/13 09:29:59;;;;;;;2.98;1.70;;;;;;;13.56;91.55;97615.80;1782573;79;21210;-62
2022/09/13 09:33:03;;;;;;;2.08;1.62;;;;;;;13.55;91.35;97614.20;1756008;80;21067;-59
2022/09/13 09:36:12;;;;;;;2.22;1.50;;;;;;;13.53;90.82;97616.97;1767857;80;20952;-61
2022/09/13 09:38:41;;;;;;;1.67;1.40;;;;;;;13.52;91.26;97616.17;1759526;79;21016;-61
2022/09/13 09:41:31;;;;;;;2.62;1.50;;;;;;;13.59;91.07;97613.00;1788351;79;21125;-61
2022/09/13 09:44:22;;;;;;;1.42;0.90;;;;;;;13.60;90.45;97621.31;1784093;79;21100;-60
2022/09/13 09:47:07;;;;;;;1.40;1.17;;;;;;;13.60;90.12;97620.77;1781424;79;21020;-62
2022/09/13 09:52:40;;;;;;;1.70;1.10;;;;;;;13.58;88.55;97617.61;1772610;80;20944;-59
2022/09/13 09:55:25;;;;;;;1.72;1.10;;;;;;;13.63;87.23;97612.06;1769208;79;21219;-60
2022/09/13 09:57:59;;;;;;;0.75;0.70;;;;;;;13.69;84.86;97617.52;1777133;79;21295;-61
2022/09/13 10:00:35;;;;;;;0.72;0.72;;;;;;;13.71;83.61;97605.87;1776692;79;20963;-61
2022/09/13 10:03:06;;;;;;;2.77;0.90;;;;;;;13.77;84.53;97609.19;1777571;79;21125;-60
2022/09/13 10:05:33;;;;;;;0.95;0.88;;;;;;;13.80;83.22;97603.73;1755339;80;20908;-62
2022/09/13 10:08:04;;;;;;;0.80;0.80;;;;;;;13.79;81.33;97610.20;1822363;77;21604;-61
2022/09/13 10:10:41;;;;;;;0.98;0.60;;;;;;;13.77;81.68;97607.05;1821849;77;21149;-61
2022/09/13 10:13:17;;;;;;;2.42;0.78;;;;;;;13.73;79.71;97604.98;1817913;77;20971;-62
2022/09/13 10:15:58;;;;;;;1.07;0.70;;;;;;;13.66;79.21;97615.45;1821832;77;20975;-62
2022/09/13 10:18:27;;;;;;;3.65;0.98;;;;;;;13.61;80.94;97614.27;1781571;79;21068;-61
2022/09/13 10:21:21;;;;;;;1.52;1.00;;;;;;;13.66;82.74;97614.65;1758188;81;21043;-60
2022/09/13 10:23:52;;;;;;;1.15;1.00;;;;;;;13.71;83.45;97615.28;1779386;79;21302;-61
2022/09/13 10:26:22;;;;;;;1.00;0.93;;;;;;;13.75;83.09;97609.27;1816063;77;20955;-61
2022/09/13 10:29:06;;;;;;;1.57;0.80;;;;;;;13.79;83.83;97615.05;1814142;78;20937;-61
2022/09/13 10:31:40;;;;;;;1.05;0.90;;;;;;;13.86;82.95;97613.20;1821163;77;20943;-59
2022/09/13 10:34:19;;;;;;;0.80;0.72;;;;;;;13.87;82.21;97609.41;1822520;77;21611;-61
2022/09/13 10:37:06;;;;;;;1.07;0.72;;;;;;;13.90;82.51;97610.09;1792684;77;21347;-62
2022/09/13 10:39:35;;;;;;;1.62;1.05;;;;;;;13.97;82.14;97607.70;1816244;77;20992;-64
2022/09/13 10:42:06;;;;;;;0.93;0.72;;;;;;;14.04;81.74;97607.45;1819879;77;21065;-62
2022/09/13 10:44:54;;;;;;;1.57;0.95;;;;;;;14.06;82.00;97601.77;1820566;77;21509;-60
2022/09/13 10:47:26;;;;;;;0.82;0.70;;;;;;;14.03;81.34;97602.40;1824384;77;21038;-62
2022/09/13 10:49:54;;;;;;;1.20;0.70;;;;;;;13.94;80.63;97608.37;1824003;77;21323;-61
2022/09/13 10:52:36;;;;;;;1.05;0.90;;;;;;;13.86;80.38;97599.74;1827633;77;20928;-64
2022/09/13 10:55:27;;;;;;;1.00;0.88;;;;;;;13.80;81.45;97606.42;1820849;77;21046;-61
2022/09/13 10:58:02;;;;;;;1.05;0.65;;;;;;;13.73;80.72;97604.77;1829869;77;21040;-65
2022/09/13 11:01:04;;;;;;;1.10;0.70;;;;;;;13.67;80.91;97607.63;1824288;77;20954;-60
2022/09/13 11:03:58;;;;;;;0.98;0.85;;;;;;;13.62;79.64;97606.44;1824998;77;21281;-61
2022/09/13 11:07:09;;;;;;;0.72;0.70;;;;;;;13.61;80.81;97603.50;1816366;77;21444;-61
2022/09/13 11:09:58;;;;;;;1.27;0.72;;;;;;;13.69;79.60;97605.40;1752704;77;21030;-60
2022/09/13 11:12:40;;;;;;;0.70;0.70;;;;;;;13.75;77.60;97602.55;1847079;77;20919;-61
2022/09/13 11:15:27;;;;;;;1.30;0.80;;;;;;;13.79;78.30;97598.09;1826873;78;21070;-60
2022/09/13 11:18:28;;;;;;;1.02;0.90;;;;;;;13.87;78.15;97597.30;1830618;77;21224;-63
2022/09/13 11:21:25;;;;;;;1.15;0.88;;;;;;;13.90;77.72;97600.67;1844236;77;21354;-62
2022/09/13 11:24:00;;;;;;;2.65;0.90;;;;;;;13.81;77.50;97595.87;1827863;77;21472;-63
2022/09/13 11:27:09;;;;;;;1.10;0.90;;;;;;;13.64;77.75;97601.52;1789864;79;21110;-60
2022/09/13 11:30:09;;;;;;;2.67;0.90;;;;;;;13.50;78.43;97603.59;1821099;77;21376;-60
2022/09/13 11:33:18;;;;;;;1.40;0.90;;;;;;;13.35;79.32;97610.82;1826347;77;21233;-62
2022/09/13 11:36:16;;;;;;;1.70;0.82;;;;;;;13.27;80.66;97611.60;1777770;79;21057;-59
2022/09/13 11:39:15;;;;;;;1.95;1.22;;;;;;;13.23;81.46;97612.55;1784421;79;21094;-60
2022/09/13 11:41:57;;;;;;;1.35;1.10;;;;;;;13.13;81.71;97612.30;1837810;77;21520;-58
2022/09/13 11:44:29;;;;;;;1.47;1.37;;;;;;;13.07;82.22;97608.20;1838837;77;21275;-57
2022/09/13 11:47:14;;;;;;;1.70;1.30;;;;;;;12.94;82.69;97606.40;1765311;79;21241;-62
2022/09/13 11:50:07;;;;;;;1.92;1.30;;;;;;;12.88;83.96;97604.98;1785751;79;21010;-61
2022/09/13 11:53:07;;;;;;;1.40;1.30;;;;;;;12.83;84.75;97603.23;1818993;77;21002;-61
2022/09/13 11:55:48;;;;;;;1.80;1.30;;;;;;;12.79;85.92;97600.91;1822053;77;21019;-60
2022/09/13 11:58:29;;;;;;;3.15;1.37;;;;;;;12.82;87.21;97604.33;1825144;77;21075;-60
2022/09/13 12:01:07;;;;;;;1.67;1.35;;;;;;;12.83;87.93;97600.55;1830491;77;21437;-60
2022/09/13 12:03:42;;;;;;;3.95;1.42;;;;;;;12.84;88.42;97596.73;1828414;77;21343;-60
2022/09/13 12:06:20;;;;;;;3.50;1.62;;;;;;;12.86;88.73;97595.06;1827851;77;21572;-59
2022/09/13 12:08:52;;;;;;;2.30;1.40;;;;;;;12.87;89.24;97604.73;1847593;77;21424;-58
2022/09/13 12:11:24;;;;;;;1.60;1.00;;;;;;;12.81;89.87;97591.98;1787072;79;21106;-59
2022/09/13 12:13:57;;;;;;;1.90;1.20;;;;;;;12.65;90.50;97600.80;1759055;80;21209;-61
2022/09/13 12:16:42;;;;;;;1.72;1.10;;;;;;;12.47;91.03;97601.86;1768492;80;21194;-63
2022/09/13 12:19:30;;;;;;;1.60;1.10;;;;;;;12.30;92.30;97605.27;1784801;79;21059;-62
2022/09/13 12:22:00;;;;;;;1.25;0.82;;;;;;;12.17;92.47;97600.81;1762293;79;21082;-58
2022/09/13 12:24:38;;;;;;;4.85;1.37;;;;;;;12.02;93.12;97600.66;1813428;77;21033;-59
2022/09/13 12:27:41;;;;;;;3.20;1.20;;;;;;;11.94;93.10;97597.36;1820127;77;22065;-60
2022/09/13 12:30:22;;;;;;;1.20;1.10;;;;;;;11.83;93.74;97604.10;1844890;77;21520;-58
2022/09/13 12:32:51;;;;;;;1.42;1.20;;;;;;;11.76;94.18;97602.40;1790430;78;21080;-57
2022/09/13 12:35:39;;;;;;;1.40;1.25;;;;;;;11.72;94.87;97589.37;1818466;77;21209;-56
2022/09/13 12:38:32;;;;;;;2.80;1.70;;;;;;;11.71;95.56;97592.33;1830934;77;21540;-58
2022/09/13 12:41:29;;;;;;;3.90;1.57;;;;;;;11.74;95.91;97589.05;1818271;77;21074;-57
2022/09/13 12:44:36;;;;;;;2.80;1.92;;;;;;;11.78;96.42;97590.81;1805862;77;21370;-59
2022/09/13 12:47:39;;;;;;;2.10;1.90;;;;;;;11.85;96.52;97585.80;1823419;77;21019;-57
2022/09/13 12:50:31;;;;;;;2.58;1.98;;;;;;;11.94;96.26;97582.60;1816093;77;21054;-59
2022/09/13 12:53:24;;;;;;;2.17;1.98;;;;;;;12.10;95.90;97578.98;1834412;77;21535;-59
2022/09/13 12:56:32;;;;;;;4.28;1.80;;;;;;;12.23;95.73;97570.82;1810323;77;23004;-58
2022/09/13 12:59:34;;;;;;;4.45;2.00;;;;;;;12.35;95.51;97566.99;1829196;77;21123;-59
2022/09/13 13:01:59;;;;;;;2.47;1.70;;;;;;;12.57;96.21;97563.42;1814300;77;21043;-57
2022/09/13 13:04:29;;;;;;;3.33;1.85;;;;;;;12.72;94.99;97564.30;1812703;79;21076;-59
2022/09/13 13:07:05;;;;;;;4.20;1.75;;;;;;;12.83;93.68;97568.84;1830106;77;21028;-58
2022/09/13 13:09:47;;;;;;;2.72;1.32;;;;;;;12.95;93.12;97571.70;1843137;77;21092;-58
2022/09/13 13:12:33;;;;;;;2.42;1.20;;;;;;;13.11;92.82;97564.78;1847720;77;20880;-58
2022/09/13 13:15:16;;;;;;;3.00;1.22;;;;;;;13.30;91.67;97557.19;1821767;77;20884;-58
2022/09/13 13:17:48;;;;;;;1.92;1.25;;;;;;;13.52;91.50;97552.15;1808724;79;21067;-59
2022/09/13 13:20:46;;;;;;;3.22;1.35;;;;;;;13.69;90.01;97544.84;1810277;77;20908;-59
2022/09/13 13:23:37;;;;;;;4.47;1.57;;;;;;;13.89;90.06;97546.61;1817238;77;21178;-58
2022/09/13 13:26:16;;;;;;;1.72;1.30;;;;;;;14.07;88.28;97546.23;1828933;77;21141;-58
2022/09/13 13:28:50;;;;;;;2.33;1.62;;;;;;;14.17;85.74;97543.73;1823598;77;21460;-59
2022/09/13 13:31:31;;;;;;;1.67;1.45;;;;;;;14.22;83.10;97540.86;1830493;77;21085;-59
2022/09/13 13:34:15;;;;;;;2.87;1.90;;;;;;;14.52;82.36;97537.64;1816176;78;21112;-59
2022/09/13 13:36:44;;;;;;;2.02;1.52;;;;;;;14.94;82.73;97533.31;1820195;77;21240;-59
2022/09/13 13:39:29;;;;;;;1.87;1.57;;;;;;;15.36;80.84;97537.31;1814800;77;21521;-60
2022/09/13 13:42:17;;;;;;;1.52;1.27;;;;;;;15.58;79.17;97543.73;1822659;77;21473;-58
2022/09/13 13:44:53;;;;;;;1.70;1.30;;;;;;;15.58;79.68;97534.28;1839763;77;21093;-58
2022/09/13 13:47:25;;;;;;;2.27;1.20;;;;;;;15.51;77.09;97538.08;1816471;77;21105;-58
2022/09/13 13:50:15;;;;;;;1.90;1.00;;;;;;;15.52;76.87;97530.23;1805329;77;21434;-59
2022/09/13 13:53:02;;;;;;;2.35;0.98;;;;;;;15.59;76.71;97521.02;1808279;77;20876;-59
2022/09/13 13:55:56;;;;;;;2.20;1.10;;;;;;;15.55;76.90;97521.44;1828970;77;21046;-59
2022/09/13 13:58:30;;;;;;;2.30;1.00;;;;;;;15.41;75.47;97519.56;1818388;77;20898;-60
2022/09/13 14:00:59;;;;;;;1.32;1.12;;;;;;;15.15;75.71;97522.50;1814787;77;21014;-60
2022/09/13 14:04:22;;;;;;;1.72;1.00;;;;;;;15.00;76.49;97520.42;1815210;77;21145;-59
2022/09/13 14:10:25;;;;;;;1.65;1.20;;;;;;;14.68;78.15;97521.12;1816083;77;21015;-58
2022/09/13 14:13:51;;;;;;;1.35;1.20;;;;;;;14.60;78.27;97512.55;1821341;77;21030;-60
2022/09/13 14:16:45;;;;;;;2.40;1.25;;;;;;;14.52;78.79;97508.79;1817831;77;21068;-59
2022/09/13 14:19:35;;;;;;;2.02;1.10;;;;;;;14.40;78.04;97501.97;1814361;77;21114;-60
2022/09/13 14:22:25;;;;;;;2.45;1.10;;;;;;;14.26;78.75;97504.08;1819369;77;20978;-59
2022/09/13 14:24:55;;;;;;;1.87;1.00;;;;;;;14.19;79.55;97499.75;1807229;77;21520;-59
2022/09/13 14:27:31;;;;;;;1.55;1.00;;;;;;;14.11;80.59;97504.06;1816867;77;21733;-59
2022/09/13 14:30:03;;;;;;;1.72;1.15;;;;;;;14.13;81.55;97500.48;1820297;77;21070;-58
2022/09/13 14:32:42;;;;;;;4.20;1.20;;;;;;;14.29;82.33;97496.70;1819824;77;21246;-58
2022/09/13 14:35:34;;;;;;;2.12;1.37;;;;;;;14.55;82.50;97498.72;1814824;77;21574;-58
2022/09/13 14:38:20;;;;;;;1.50;1.20;;;;;;;14.75;81.90;97495.23;1821582;77;20872;-58
2022/09/13 14:40:50;;;;;;;3.05;1.50;;;;;;;15.03;82.10;97498.17;1828956;77;21117;-60
2022/09/13 14:43:26;;;;;;;1.77;1.40;;;;;;;15.52;81.30;97488.39;1815585;79;21015;-58
